createdAt,value
2019-03-22T00:16:04.128Z,99.90
2019-03-22T01:06:30.603Z,99.90
2019-03-22T01:18:22.861Z,99.90
2019-03-22T01:21:03.738Z,99.90
2019-03-22T02:14:25.802Z,99.90
2019-03-22T02:55:56.938Z,99.90
2019-03-22T03:12:26.553Z,99.90
2019-03-22T03:14:55.299Z,99.90
2019-03-22T03:17:24.097Z,99.90
2019-03-22T03:19:52.947Z,99.90
2019-03-22T03:22:21.951Z,99.90
2019-03-22T03:24:50.760Z,99.90
2019-03-22T03:27:19.587Z,99.90
2019-03-22T03:29:48.439Z,99.90
2019-03-22T03:32:17.271Z,99.90
2019-03-22T03:34:46.021Z,99.90
2019-03-22T03:37:14.850Z,99.90
2019-03-22T03:39:43.596Z,99.90
2019-03-22T03:42:12.386Z,99.90
2019-03-22T03:44:41.202Z,99.90
2019-03-22T03:47:10.629Z,99.90
2019-03-22T03:49:39.624Z,99.90
2019-03-22T03:52:08.453Z,99.90
2019-03-22T03:54:37.711Z,99.90
2019-03-22T03:57:06.498Z,99.90
2019-03-22T03:59:35.264Z,99.90
2019-03-22T04:02:04.037Z,99.90
2019-03-22T04:04:32.807Z,99.90
2019-03-22T04:07:01.579Z,99.90
2019-03-22T04:09:30.490Z,99.90
2019-03-22T04:11:59.330Z,99.90
2019-03-22T04:14:28.169Z,99.90
2019-03-22T04:16:56.996Z,99.90
2019-03-22T04:19:25.847Z,99.90
2019-03-22T04:21:54.635Z,99.90
2019-03-22T04:24:23.376Z,99.90
2019-03-22T04:26:52.169Z,99.90
2019-03-22T04:29:20.999Z,99.90
2019-03-22T04:31:49.770Z,99.90
2019-03-22T04:34:18.802Z,99.90
2019-03-22T04:36:47.617Z,99.90
2019-03-22T04:39:16.756Z,99.90
2019-03-22T04:41:45.902Z,99.90
2019-03-22T04:44:14.737Z,99.90
2019-03-22T04:46:45.469Z,99.90
2019-03-22T04:49:16.403Z,99.90
2019-03-22T04:51:45.745Z,99.90
2019-03-22T04:54:16.928Z,99.90
2019-03-22T04:56:46.472Z,99.90
2019-03-22T04:59:19.313Z,99.90
2019-03-22T05:01:49.539Z,99.90
2019-03-22T05:04:19.641Z,99.90
2019-03-22T05:06:50.158Z,99.90
2019-03-22T05:09:19.489Z,99.90
2019-03-22T05:11:48.434Z,99.90
2019-03-22T05:14:18.525Z,99.90
2019-03-22T05:16:49.305Z,99.90
2019-03-22T05:19:19.136Z,99.90
2019-03-22T05:21:50.297Z,99.90
2019-03-22T05:24:20.969Z,99.90
2019-03-22T05:26:50.805Z,99.90
2019-03-22T05:29:30.104Z,99.90
2019-03-22T05:32:02.908Z,99.90
2019-03-22T05:34:31.701Z,99.90
2019-03-22T05:37:00.490Z,99.90
2019-03-22T05:39:29.580Z,99.90
2019-03-22T05:41:58.379Z,99.90
2019-03-22T05:44:27.233Z,99.90
2019-03-22T05:46:56.364Z,99.90
2019-03-22T05:49:25.225Z,99.90
2019-03-22T05:51:54.113Z,99.90
2019-03-22T05:54:22.862Z,99.90
2019-03-22T05:56:52.083Z,99.90
2019-03-22T05:59:20.832Z,99.90
2019-03-22T06:01:49.604Z,99.90
2019-03-22T06:04:18.722Z,99.90
2019-03-22T06:06:47.543Z,99.90
2019-03-22T06:09:16.561Z,99.90
2019-03-22T06:11:45.344Z,99.90
2019-03-22T06:14:14.084Z,99.90
2019-03-22T06:16:42.896Z,99.90
2019-03-22T06:19:11.752Z,99.90
2019-03-22T06:21:40.539Z,99.90
2019-03-22T06:24:09.337Z,99.90
2019-03-22T06:26:38.124Z,99.90
2019-03-22T06:29:07.112Z,99.90
2019-03-22T06:31:35.927Z,99.90
2019-03-22T06:34:05.287Z,99.90
2019-03-22T06:36:34.303Z,99.90
2019-03-22T06:39:04.462Z,99.90
2019-03-22T06:41:33.380Z,99.90
2019-03-22T06:44:02.249Z,99.90
2019-03-22T06:46:31.212Z,99.90
2019-03-22T06:48:59.997Z,99.90
2019-03-22T06:51:28.768Z,99.90
2019-03-22T06:53:57.571Z,99.90
2019-03-22T06:56:26.347Z,99.90
2019-03-22T06:58:55.098Z,99.90
2019-03-22T07:01:23.906Z,99.90
2019-03-22T07:03:52.716Z,99.90
2019-03-22T07:06:21.497Z,99.90
2019-03-22T07:08:50.326Z,99.90
2019-03-22T07:11:19.597Z,99.90
2019-03-22T07:13:48.586Z,99.90
2019-03-22T07:16:17.336Z,99.90
2019-03-22T07:18:46.285Z,99.90
2019-03-22T07:21:15.101Z,99.90
2019-03-22T07:23:43.882Z,99.90
2019-03-22T07:26:12.702Z,99.90
2019-03-22T07:28:42.082Z,99.90
2019-03-22T07:31:10.941Z,99.90
2019-03-22T07:33:45.470Z,99.90
2019-03-22T07:36:14.375Z,99.90
2019-03-22T07:38:43.171Z,99.90
2019-03-22T07:41:11.959Z,99.90
2019-03-22T07:43:40.771Z,99.90
2019-03-22T07:46:09.846Z,99.90
2019-03-22T07:48:38.662Z,99.90
2019-03-22T07:51:07.489Z,99.90
2019-03-22T07:53:36.234Z,99.90
2019-03-22T07:56:05.165Z,99.90
2019-03-22T07:58:33.956Z,99.90
2019-03-22T08:01:02.896Z,99.90
2019-03-22T08:03:31.743Z,99.90
2019-03-22T08:06:00.669Z,99.90
2019-03-22T08:08:29.492Z,99.90
2019-03-22T08:10:59.191Z,99.90
2019-03-22T08:13:28.467Z,99.90
2019-03-22T08:15:57.796Z,99.90
2019-03-22T08:18:26.623Z,99.90
2019-03-22T08:20:55.554Z,99.90
2019-03-22T08:23:24.679Z,99.90
2019-03-22T08:25:54.714Z,99.90
2019-03-22T08:28:23.537Z,99.90
2019-03-22T08:30:52.292Z,99.90
2019-03-22T08:33:21.567Z,99.90
2019-03-22T08:35:50.376Z,99.90
2019-03-22T08:38:19.189Z,99.90
2019-03-22T08:40:48.686Z,99.90
2019-03-22T08:43:17.472Z,99.90
2019-03-22T08:45:46.669Z,99.90
2019-03-22T08:48:15.495Z,99.90
2019-03-22T08:50:44.294Z,99.90
2019-03-22T08:53:13.186Z,99.90
2019-03-22T08:55:41.974Z,99.90
2019-03-22T08:58:10.805Z,99.90
2019-03-22T09:00:40.048Z,99.90
2019-03-22T09:03:09.043Z,99.90
2019-03-22T09:05:37.926Z,99.90
2019-03-22T09:08:06.761Z,99.90
2019-03-22T09:10:35.583Z,99.90
2019-03-22T09:13:04.435Z,99.90
2019-03-22T09:15:41.061Z,99.90
2019-03-22T09:18:04.274Z,99.90
2019-03-22T09:20:33.289Z,99.90
2019-03-22T09:23:03.372Z,99.90
2019-03-22T09:25:32.214Z,99.90
2019-03-22T09:28:01.515Z,99.90
2019-03-22T09:30:30.412Z,99.90
2019-03-22T09:32:59.210Z,99.90
2019-03-22T09:35:28.021Z,99.90
2019-03-22T09:37:57.015Z,99.90
2019-03-22T09:40:25.914Z,99.90
2019-03-22T09:42:54.878Z,99.90
2019-03-22T09:45:23.772Z,99.90
2019-03-22T09:47:52.637Z,99.90
2019-03-22T09:50:21.390Z,99.90
2019-03-22T09:52:50.508Z,99.90
2019-03-22T09:55:19.389Z,99.90
2019-03-22T09:57:49.475Z,99.90
2019-03-22T10:00:30.467Z,99.90
2019-03-22T10:02:59.962Z,99.90
2019-03-22T10:05:29.071Z,99.90
2019-03-22T10:07:58.177Z,99.90
2019-03-22T10:10:26.937Z,99.90
2019-03-22T10:12:56.056Z,99.90
2019-03-22T10:15:24.966Z,99.90
2019-03-22T10:17:53.793Z,99.90
2019-03-22T10:20:24.206Z,99.90
2019-03-22T10:22:53.020Z,99.90
2019-03-22T10:25:21.816Z,99.90
2019-03-22T10:27:50.617Z,99.90
2019-03-22T10:30:19.639Z,99.90
2019-03-22T10:32:48.444Z,99.90
2019-03-22T10:35:26.015Z,99.90
2019-03-22T10:37:47.738Z,99.90
2019-03-22T10:40:16.690Z,99.90
2019-03-22T10:42:45.630Z,99.90
2019-03-22T10:45:14.984Z,99.90
2019-03-22T10:47:44.120Z,99.90
2019-03-22T10:50:13.038Z,99.90
2019-03-22T10:52:41.825Z,99.90
2019-03-22T10:55:28.351Z,99.90
2019-03-22T10:57:41.950Z,99.90
2019-03-22T11:00:13.851Z,99.90
2019-03-22T11:02:42.654Z,99.90
2019-03-22T11:05:11.878Z,99.90
2019-03-22T11:07:40.686Z,99.90
2019-03-22T11:10:13.522Z,99.90
2019-03-22T11:12:42.542Z,99.90
2019-03-22T11:15:13.125Z,99.90
2019-03-22T11:17:41.943Z,99.90
2019-03-22T11:20:16.621Z,99.90
2019-03-22T11:22:45.374Z,99.90
2019-03-22T11:25:14.302Z,99.90
2019-03-22T11:27:43.126Z,99.90
2019-03-22T11:30:19.382Z,99.90
2019-03-22T11:32:48.165Z,99.90
2019-03-22T11:35:16.921Z,99.90
2019-03-22T11:37:46.961Z,99.90
2019-03-22T11:40:17.145Z,99.90
2019-03-22T11:42:45.990Z,99.90
2019-03-22T11:45:17.840Z,99.90
2019-03-22T11:47:46.693Z,99.90
2019-03-22T11:50:15.807Z,99.90
2019-03-22T11:52:44.856Z,99.90
2019-03-22T11:55:14.548Z,99.90
2019-03-22T11:57:43.322Z,99.90
2019-03-22T12:00:24.054Z,99.90
2019-03-22T12:02:53.081Z,99.90
2019-03-22T12:05:22.804Z,99.90
2019-03-22T12:07:52.186Z,99.90
2019-03-22T12:10:21.435Z,99.90
2019-03-22T12:12:50.350Z,99.90
2019-03-22T12:15:21.155Z,99.90
2019-03-22T12:17:50.050Z,99.90
2019-03-22T12:20:21.342Z,99.90
2019-03-22T12:22:50.484Z,99.90
2019-03-22T12:25:21.770Z,99.90
2019-03-22T12:27:50.541Z,99.90
2019-03-22T12:30:19.821Z,99.90
2019-03-22T12:32:48.879Z,99.90
2019-03-22T12:35:18.273Z,99.90
2019-03-22T12:37:47.441Z,99.90
2019-03-22T12:40:21.282Z,99.90
2019-03-22T12:42:50.228Z,99.90
2019-03-22T12:45:24.522Z,99.90
2019-03-22T12:47:53.728Z,99.90
2019-03-22T12:50:22.672Z,99.90
2019-03-22T12:52:51.514Z,99.90
2019-03-22T12:55:20.946Z,99.90
2019-03-22T12:57:49.768Z,99.90
2019-03-22T13:00:21.226Z,99.90
2019-03-22T13:02:51.747Z,95.60
2019-03-22T13:05:21.069Z,92.80
2019-03-22T13:07:50.358Z,94.50
2019-03-22T13:10:22.019Z,96.40
2019-03-22T13:12:50.810Z,97.90
2019-03-22T13:15:19.641Z,96.20
2019-03-22T13:17:48.627Z,90.60
2019-03-22T13:20:17.379Z,93.50
2019-03-22T13:22:46.314Z,96.80
2019-03-22T13:25:16.588Z,99.00
2019-03-22T13:27:45.420Z,94.30
2019-03-22T13:30:35.410Z,95.50
2019-03-22T13:33:04.878Z,95.80
2019-03-22T13:35:33.764Z,98.60
2019-03-22T13:38:02.653Z,99.20
2019-03-22T13:40:31.992Z,94.90
2019-03-22T13:43:00.836Z,94.50
2019-03-22T13:45:30.241Z,92.20
2019-03-22T13:47:59.446Z,90.70
2019-03-22T13:50:28.603Z,94.40
2019-03-22T13:52:57.436Z,94.30
2019-03-22T13:55:26.184Z,90.80
2019-03-22T13:57:54.980Z,89.70
2019-03-22T14:00:23.745Z,88.90
2019-03-22T14:03:03.185Z,78.30
2019-03-22T14:05:24.895Z,75.60
2019-03-22T14:07:53.735Z,77.70
2019-03-22T14:10:31.026Z,91.10
2019-03-22T14:13:01.886Z,86.00
2019-03-22T14:15:30.953Z,92.80
2019-03-22T14:18:00.439Z,95.00
2019-03-22T14:20:29.849Z,95.80
2019-03-22T14:22:58.605Z,97.20
2019-03-22T14:25:27.398Z,93.60
2019-03-22T14:27:56.181Z,94.40
2019-03-22T14:30:25.186Z,95.50
2019-03-22T14:32:55.091Z,94.20
2019-03-22T14:35:23.885Z,90.10
2019-03-22T14:37:52.662Z,96.20
2019-03-22T14:40:22.964Z,94.10
2019-03-22T14:42:52.132Z,92.70
2019-03-22T14:45:20.913Z,93.80
2019-03-22T14:47:49.707Z,93.60
2019-03-22T14:50:18.619Z,89.20
2019-03-22T14:52:47.727Z,86.40
2019-03-22T14:55:16.472Z,80.50
2019-03-22T14:57:50.092Z,86.10
2019-03-22T15:00:16.084Z,90.10
2019-03-22T15:02:44.871Z,92.50
2019-03-22T15:05:13.762Z,97.00
2019-03-22T15:07:42.745Z,87.80
2019-03-22T15:10:13.355Z,93.10
2019-03-22T15:12:42.266Z,91.90
2019-03-22T15:15:25.073Z,91.70
2019-03-22T15:17:55.570Z,90.00
2019-03-22T15:20:38.350Z,94.50
2019-03-22T15:23:20.504Z,93.70
2019-03-22T15:26:09.366Z,96.30
2019-03-22T15:28:55.951Z,97.70
2019-03-22T15:31:44.771Z,99.90
2019-03-22T15:34:21.376Z,96.70
2019-03-22T15:37:08.531Z,99.30
2019-03-22T15:39:45.250Z,99.90
2019-03-22T15:42:14.040Z,99.90
2019-03-22T15:44:43.151Z,99.90
2019-03-22T15:47:12.102Z,99.90
2019-03-22T15:49:41.246Z,99.90
2019-03-22T15:52:10.009Z,99.70
2019-03-22T15:54:38.814Z,98.90
2019-03-22T15:57:07.830Z,98.00
2019-03-22T15:59:36.899Z,96.50
2019-03-22T16:02:06.018Z,90.90
2019-03-22T16:04:34.804Z,83.80
2019-03-22T16:07:03.325Z,46.30
2019-03-22T16:09:32.084Z,52.70
2019-03-22T16:12:00.902Z,53.90
2019-03-22T16:14:30.051Z,54.70
2019-03-22T16:16:58.850Z,62.60
2019-03-22T16:19:27.609Z,75.50
2019-03-22T16:21:56.460Z,92.00
2019-03-22T16:24:25.262Z,96.10
2019-03-22T16:26:54.113Z,96.50
2019-03-22T16:29:22.943Z,99.70
2019-03-22T16:31:51.751Z,99.90
2019-03-22T16:34:20.513Z,99.90
2019-03-22T16:36:49.269Z,99.90
2019-03-22T16:39:18.072Z,99.90
2019-03-22T16:41:46.911Z,99.90
2019-03-22T16:44:15.685Z,99.90
2019-03-22T16:46:44.498Z,99.90
2019-03-22T16:49:13.239Z,99.90
2019-03-22T16:51:41.976Z,99.90
2019-03-22T16:54:10.766Z,99.90
2019-03-22T16:56:39.544Z,99.90
2019-03-22T16:59:08.285Z,99.90
2019-03-22T17:01:37.055Z,99.90
2019-03-22T17:04:05.870Z,99.90
2019-03-22T17:06:34.703Z,99.90
2019-03-22T17:09:04.501Z,99.90
2019-03-22T17:11:33.407Z,99.90
2019-03-22T17:14:02.549Z,99.90
2019-03-22T17:16:31.338Z,99.90
2019-03-22T17:19:00.117Z,99.90
2019-03-22T17:21:28.894Z,99.90
2019-03-22T17:23:57.748Z,99.90
2019-03-22T17:26:26.564Z,99.90
2019-03-22T17:28:55.328Z,99.90
2019-03-22T17:31:24.106Z,99.90
2019-03-22T17:33:52.872Z,99.90
2019-03-22T17:36:21.642Z,99.90
2019-03-22T17:38:50.439Z,99.90
2019-03-22T17:41:19.254Z,99.90
2019-03-22T17:43:48.007Z,99.90
2019-03-22T17:46:16.787Z,99.90
2019-03-22T17:48:45.562Z,99.90
2019-03-22T17:51:16.961Z,99.90
2019-03-22T17:53:45.778Z,99.90
2019-03-22T17:56:14.569Z,99.90
2019-03-22T17:58:43.332Z,99.90
2019-03-22T18:01:12.203Z,99.90
2019-03-22T18:03:40.948Z,99.90
2019-03-22T18:06:09.693Z,99.90
2019-03-22T18:08:38.471Z,99.90
2019-03-22T18:11:07.234Z,99.90
2019-03-22T18:13:35.999Z,99.90
2019-03-22T18:16:05.106Z,99.90
2019-03-22T18:18:33.900Z,99.90
2019-03-22T18:21:02.657Z,99.90
2019-03-22T18:23:35.743Z,99.90
2019-03-22T18:26:01.979Z,99.90
2019-03-22T18:28:30.818Z,99.90
2019-03-22T18:30:59.594Z,99.90
2019-03-22T18:33:28.340Z,99.90
2019-03-22T18:35:57.108Z,99.90
2019-03-22T18:38:25.941Z,99.90
2019-03-22T18:40:54.706Z,99.90
2019-03-22T18:43:23.459Z,99.90
2019-03-22T18:45:52.299Z,99.90
2019-03-22T18:48:21.136Z,99.90
2019-03-22T18:50:56.766Z,99.90
2019-03-22T18:53:20.504Z,99.90
2019-03-22T18:55:49.269Z,99.90
2019-03-22T18:58:18.053Z,99.90
2019-03-22T19:00:49.555Z,99.90
2019-03-22T19:03:17.791Z,99.90
2019-03-22T19:05:46.793Z,99.90
2019-03-22T19:08:15.541Z,99.90
2019-03-22T19:10:44.340Z,99.90
2019-03-22T19:13:13.123Z,99.90
2019-03-22T19:15:42.130Z,99.90
2019-03-22T19:18:12.789Z,99.90
2019-03-22T19:20:41.628Z,99.90
2019-03-22T19:23:10.471Z,99.90
2019-03-22T19:25:39.254Z,99.90
2019-03-22T19:28:08.069Z,99.90
2019-03-22T19:30:37.163Z,99.90
2019-03-22T19:33:06.902Z,99.90
2019-03-22T19:35:36.033Z,99.90
2019-03-22T19:38:05.151Z,99.90
2019-03-22T19:40:34.190Z,99.90
2019-03-22T19:43:02.977Z,99.90
2019-03-22T19:45:31.757Z,99.90
2019-03-22T19:48:00.717Z,99.90
2019-03-22T19:50:29.654Z,99.90
2019-03-22T19:52:58.464Z,99.90
2019-03-22T19:55:27.480Z,99.90
2019-03-22T19:57:56.256Z,99.90
2019-03-22T20:00:25.080Z,99.90
2019-03-22T20:02:54.177Z,99.90
2019-03-22T20:05:30.408Z,99.90
2019-03-22T20:07:59.570Z,99.90
2019-03-22T20:10:29.033Z,99.90
2019-03-22T20:12:58.211Z,99.90
2019-03-22T20:15:27.384Z,99.90
2019-03-22T20:17:56.290Z,99.90
2019-03-22T20:20:26.035Z,99.90
2019-03-22T20:22:54.789Z,99.90
2019-03-22T20:25:23.590Z,99.90
2019-03-22T20:27:52.734Z,99.90
2019-03-22T20:30:21.587Z,99.90
2019-03-22T20:32:50.666Z,99.90
2019-03-22T20:35:19.758Z,99.90
2019-03-22T20:37:48.744Z,99.90
2019-03-22T20:40:18.828Z,99.90
2019-03-22T20:42:47.657Z,99.90
2019-03-22T20:45:23.964Z,99.90
2019-03-22T20:47:47.269Z,99.90
2019-03-22T20:50:16.028Z,99.90
2019-03-22T20:52:44.847Z,99.90
2019-03-22T20:55:15.835Z,99.90
2019-03-22T20:57:44.354Z,99.90
2019-03-22T21:00:14.479Z,99.90
2019-03-22T21:02:43.340Z,99.90
2019-03-22T21:05:12.624Z,99.90
2019-03-22T21:07:41.382Z,99.90
2019-03-22T21:10:11.074Z,99.90
2019-03-22T21:12:40.112Z,99.90
2019-03-22T21:15:23.497Z,99.90
2019-03-22T21:17:45.856Z,99.90
2019-03-22T21:20:15.717Z,99.90
2019-03-22T21:22:44.520Z,99.90
2019-03-22T21:25:13.532Z,99.90
2019-03-22T21:27:42.361Z,99.90
2019-03-22T21:30:14.263Z,99.90
2019-03-22T21:32:45.657Z,99.90
2019-03-22T21:35:22.561Z,99.90
2019-03-22T21:37:44.592Z,99.90
2019-03-22T21:40:13.846Z,99.90
2019-03-22T21:42:42.655Z,99.90
2019-03-22T21:45:12.796Z,99.90
2019-03-22T21:47:41.573Z,99.90
2019-03-22T21:50:10.826Z,99.90
2019-03-22T21:52:39.678Z,99.90
2019-03-22T21:55:09.362Z,99.90
2019-03-22T21:57:38.526Z,99.90
2019-03-22T22:00:09.519Z,99.90
2019-03-22T22:02:38.295Z,99.90
2019-03-22T22:05:07.597Z,99.90
2019-03-22T22:07:36.894Z,99.90
2019-03-22T22:10:10.315Z,99.90
2019-03-22T22:12:39.163Z,99.90
2019-03-22T22:15:12.295Z,99.90
2019-03-22T22:17:41.539Z,99.90
2019-03-22T22:20:10.901Z,99.90
2019-03-22T22:22:40.157Z,99.90
2019-03-22T22:25:09.653Z,99.90
2019-03-22T22:27:38.514Z,99.90
2019-03-22T22:30:11.551Z,99.90
2019-03-22T22:32:41.331Z,99.90
2019-03-22T22:35:10.189Z,99.90
2019-03-22T22:37:39.258Z,99.90
2019-03-22T22:40:09.698Z,99.90
2019-03-22T22:42:38.534Z,99.90
2019-03-22T22:45:09.647Z,99.90
2019-03-22T22:47:38.673Z,99.90
2019-03-22T22:50:11.652Z,99.90
2019-03-22T22:52:40.493Z,99.90
2019-03-22T22:55:09.599Z,99.90
2019-03-22T22:57:38.490Z,99.90
2019-03-22T23:00:15.901Z,99.90
2019-03-22T23:02:45.019Z,99.90
2019-03-22T23:05:14.003Z,99.90
2019-03-22T23:07:45.150Z,99.90
2019-03-22T23:10:13.989Z,99.90
2019-03-22T23:12:43.518Z,99.90
2019-03-22T23:15:12.340Z,99.90
2019-03-22T23:17:41.399Z,99.90
2019-03-22T23:20:11.116Z,99.90
2019-03-22T23:22:40.870Z,99.90
2019-03-22T23:25:10.018Z,99.90
2019-03-22T23:27:38.868Z,99.90
2019-03-22T23:30:11.965Z,99.90
2019-03-22T23:32:41.268Z,99.90
2019-03-22T23:35:10.295Z,99.90
2019-03-22T23:37:39.343Z,99.90
2019-03-22T23:40:08.830Z,99.90
2019-03-22T23:42:37.630Z,99.90
2019-03-22T23:45:10.555Z,99.90
2019-03-22T23:47:39.339Z,99.90
2019-03-22T23:50:08.776Z,99.90
2019-03-22T23:52:37.578Z,99.90
2019-03-22T23:55:07.463Z,99.90
2019-03-22T23:57:36.257Z,99.90
